Latest Weather Observations for Barimunya

IDW60801

Issued at 1:33 pm WST Thursday 1 September 2016 (issued every 30 minutes, with the page automatically refreshed every 10 minutes)

About weather observations | Map of weather stations | Latest weather observations for WA | Other Formats
Station Details ID: 505053 Name: BARIMUNYA Lat: -22.67 Lon: 119.16 Height: 629.17 m
Data from the previous 72 hours. | See also: Recent months for locations in Western Australia
Date/Time
WST
Temp
°C
App
Temp
°C
Dew
Point
°C
Rel
Hum
%
Delta-T
°C
Wind Press
QNH
hPa
Press
MSL
hPa
Rain since
9am
mm
Dir  Spd
km/h
Gust
km/h
Spd
kts
Gust
kts
01/01:30pm 21.2 15.6 1.5 27 9.3 SSE 20 33 11 18 1017.8 1014.9 0.0
01/01:00pm 20.2 14.6 1.1 28 8.9 SSE 20 32 11 17 1018.1 1015.2 0.0
01/12:30pm 19.9 14.3 3.2 33 8.1 SSE 22 33 12 18 1018.5 1015.6 0.0
01/12:00pm 18.8 13.7 4.2 38 7.2 S 20 30 11 16 1019.1 1016.2 0.0
01/11:30am 18.6 13.9 5.1 41 6.8 SSE 19 30 10 16 1019.4 1016.5 0.0
01/11:00am 18.6 13.8 5.5 42 6.6 SSE 20 30 11 16 1019.7 1016.8 0.0
01/10:30am 17.2 12.8 6.4 49 5.5 SSW 19 28 10 15 1020.0 1017.1 0.0
01/10:00am 16.0 11.6 6.7 54 4.7 SSW 19 26 10 14 1020.3 1017.5 0.0
01/09:30am 15.7 10.4 7.0 56 4.4 SSE 24 33 13 18 1020.4 1017.6 0.0
01/09:00am 15.8 10.7 7.6 58 4.2 SSE 24 33 13 18 1020.3 1017.5 0.0
01/08:30am 15.9 10.8 7.7 58 4.2 SSE 24 33 13 18 1020.1 1017.3 0.0
01/08:00am 14.3 9.4 8.3 67 3.1 S 24 32 13 17 1019.7 1016.8 0.0
01/07:30am 13.5 8.9 8.1 70 2.8 S 22 30 12 16 1019.2 1017.4 0.0
01/07:00am 12.9 8.7 8.2 73 2.4 S 20 28 11 15 1018.9 1017.2 0.0
01/06:30am 12.5 9.2 8.2 75 2.2 S 15 24 8 13 1018.6 1016.8 0.0
01/06:00am 12.6 8.6 8.1 74 2.3 S 19 24 10 13 1018.3 1016.5 0.0
01/05:30am 13.0 9.0 8.3 73 2.4 SSW 19 30 10 16 1017.8 1016.0 0.0
01/05:00am 13.4 8.1 8.5 72 2.5 SSW 26 35 14 19 1017.2 1015.4 0.0
01/04:30am 13.7 9.7 8.1 69 2.9 SSW 19 28 10 15 1017.0 1015.2 0.0
01/04:00am 14.1 9.7 7.6 65 3.3 SSW 20 28 11 15 1016.7 1014.9 0.0
01/03:30am 14.5 10.6 7.3 62 3.7 SSW 17 24 9 13 1016.7 1014.9 0.0
01/03:00am 15.2 10.5 6.2 55 4.5 SSW 20 30 11 16 1016.8 1015.0 0.0
01/02:30am 15.4 12.3 5.6 52 4.8 SW 11 13 6 7 1016.8 1015.0 0.0
01/02:00am 15.9 12.0 5.5 50 5.1 SW 15 20 8 11 1017.0 1015.2 0.0
01/01:30am 16.3 12.5 5.6 49 5.3 SW 15 20 8 11 1017.1 1015.3 0.0
01/01:00am 16.2 13.3 6.6 53 4.9 SW 11 13 6 7 1017.5 1015.7 0.0
01/12:30am 16.6 14.0 7.8 56 4.6 SW 11 19 6 10 1017.7 1015.9 0.0
01/12:00am 17.1 14.6 8.3 56 4.6 SW 11 15 6 8 1017.8 1016.0 0.0
 
Date/Time
WST
Temp
°C
App
Temp
°C
Dew
Point
°C
Rel
Hum
%
Delta-T
°C
Wind Press
QNH
hPa
Press
MSL
hPa
Rain since
9am
mm
Dir  Spd
km/h
Gust
km/h
Spd
kts
Gust
kts
31/11:30pm 17.7 14.7 7.7 52 5.2 WSW 13 20 7 11 1017.9 1016.1 0.0
31/11:00pm 18.0 14.8 6.8 48 5.8 WSW 13 17 7 9 1017.8 1016.0 0.0
31/10:30pm 18.6 14.6 5.1 41 6.8 WSW 15 20 8 11 1017.7 1015.9 0.0
31/10:00pm 19.0 15.6 5.8 42 6.7 WSW 13 17 7 9 1017.5 1015.7 0.0
31/09:30pm 19.9 15.1 5.5 39 7.3 WSW 20 32 11 17 1017.4 1015.5 0.0
31/09:00pm 20.6 16.6 6.5 40 7.3 WSW 17 26 9 14 1017.2 1015.4 0.0
31/08:30pm 20.8 18.0 8.4 45 6.7 WSW 13 17 7 9 1017.0 1015.2 0.0
31/08:00pm 21.2 18.6 9.4 47 6.5 W 13 19 7 10 1016.7 1014.9 0.0
31/07:30pm 21.3 17.9 9.2 46 6.6 W 17 20 9 11 1016.6 1014.8 0.0
31/07:00pm 21.8 17.4 9.0 44 7.0 W 22 32 12 17 1016.3 1014.5 0.0
31/06:30pm 22.1 17.3 8.9 43 7.2 W 24 32 13 17 1015.7 1013.8 0.0
31/06:00pm 22.2 17.8 9.0 43 7.3 W 22 35 12 19 1015.5 1013.7 0.0
31/05:31pm 23.0 17.2 7.9 38 8.2 W 28 46 15 25 1015.3 1013.5 0.0
31/05:30pm 23.1 17.6 7.6 37 8.4 W 26 44 14 24 1015.3 1013.5 0.0
31/05:00pm 23.9 19.0 5.3 30 9.7 W 20 28 11 15 1015.1 1013.3 0.0
31/04:30pm 24.1 19.5 5.5 30 9.7 W 19 24 10 13 1014.8 1013.0 0.0
31/04:00pm 24.2 19.1 6.0 31 9.6 W 22 35 12 19 1014.7 1012.9 0.0
31/03:30pm 24.2 18.2 5.5 30 9.8 W 26 39 14 21 1015.0 1013.2 0.0
31/03:00pm 25.1 19.6 5.8 29 10.2 WNW 24 32 13 17 1014.9 1013.1 0.0
31/02:30pm 24.9 19.7 5.7 29 10.1 NW 22 32 12 17 1015.1 1013.3 0.0
31/02:00pm 24.9 19.9 4.6 27 10.5 NW 20 32 11 17 1015.2 1013.4 0.0
31/01:30pm 25.4 20.1 5.1 27 10.6 NW 22 32 12 17 1015.4 1013.6 0.0
31/01:00pm 25.2 19.0 4.3 26 10.7 NNW 26 35 14 19 1015.8 1013.9 0.0
31/12:30pm 25.3 19.5 4.4 26 10.8 NNW 24 35 13 19 1016.0 1014.1 0.0
31/12:00pm 24.1 18.3 4.5 28 10.0 NNW 24 32 13 17 1016.5 1014.7 0.0
31/11:30am 24.0 17.8 4.4 28 10.0 N 26 37 14 20 1017.0 1015.2 0.0
31/11:00am 23.3 18.6 5.2 31 9.3 NNW 19 35 10 19 1017.6 1015.8 0.0
31/10:30am 22.3 17.2 6.1 35 8.5 N 22 35 12 19 1017.7 1015.9 0.0
31/10:00am 21.4 15.7 6.9 39 7.6 N 26 35 14 19 1017.9 1016.1 0.0
31/09:30am 21.7 16.8 6.8 38 7.9 N 22 30 12 16 1018.3 1016.5 0.0
31/09:00am 20.7 15.6 5.9 38 7.6 N 22 32 12 17 1017.9 1016.1 0.0
31/08:30am 20.3 15.7 5.5 38 7.5 N 19 28 10 15 1017.4 1015.5 0.0
31/08:00am 19.3 14.8 6.1 42 6.8 NNE 19 24 10 13 1017.0 1015.2 0.0
31/07:30am 17.7 17.0 8.6 55 4.8 WSW 2 9 1 5 1017.2 1015.4 0.0
31/07:00am 12.8 12.2 7.5 70 2.7 CALM 0 0 0 0 1017.5 1015.7 0.0
31/06:30am 12.9 11.2 7.4 69 2.8 WSW 6 7 3 4 1017.2 1015.4 0.0
31/06:00am 12.0 11.2 6.7 70 2.6 CALM 0 0 0 0 1017.0 1015.2 0.0
31/05:30am 13.3 11.6 7.7 69 2.8 WSW 6 9 3 5 1016.9 1015.1 0.0
31/05:00am 13.1 11.1 7.3 68 2.9 WSW 7 7 4 4 1016.7 1014.9 0.0
31/04:30am 11.7 10.8 6.2 69 2.7 CALM 0 0 0 0 1016.4 1014.6 0.0
31/04:00am 12.9 11.9 5.8 62 3.5 CALM 0 0 0 0 1016.2 1014.4 0.0
31/03:30am 13.8 13.0 6.7 62 3.5 CALM 0 0 0 0 1016.3 1014.5 0.0
31/03:00am 14.1 13.3 6.5 60 3.8 CALM 0 4 0 2 1016.4 1014.6 0.0
31/02:30am 14.7 12.1 6.0 56 4.3 WSW 9 13 5 7 1016.7 1014.9 0.0
31/02:00am 16.4 14.7 8.4 59 4.2 WSW 7 11 4 6 1016.8 1015.0 0.0
31/01:30am 17.3 14.9 8.7 57 4.6 NW 11 15 6 8 1016.7 1014.9 0.0
31/01:00am 16.6 16.2 8.1 57 4.4 CALM 0 0 0 0 1017.0 1015.2 0.0
31/12:30am 17.7 15.3 8.6 55 4.8 NW 11 19 6 10 1017.1 1015.3 0.0
31/12:00am 17.8 15.3 8.1 53 5.1 NW 11 20 6 11 1017.5 1015.7 0.0
 
Date/Time
WST
Temp
°C
App
Temp
°C
Dew
Point
°C
Rel
Hum
%
Delta-T
°C
Wind Press
QNH
hPa
Press
MSL
hPa
Rain since
9am
mm
Dir  Spd
km/h
Gust
km/h
Spd
kts
Gust
kts
30/11:30pm 18.2 14.7 7.0 48 5.8 NNW 15 20 8 11 1017.6 1015.8 0.0
30/11:00pm 18.8 14.1 3.0 35 7.6 N 17 26 9 14 1017.7 1015.9 0.0
30/10:30pm 15.3 12.2 1.4 39 6.3 NNW 7 9 4 5 1017.4 1015.5 0.0
30/10:00pm 16.7 13.2 1.2 35 7.1 NNE 9 11 5 6 1017.5 1015.7 0.0
30/09:30pm 16.8 13.6 0.9 34 7.2 NE 7 9 4 5 1017.6 1015.8 0.0
30/09:00pm 18.1 14.9 0.7 31 7.9 NNE 7 11 4 6 1017.6 1015.8 0.0
30/08:30pm 18.8 15.5 0.4 29 8.4 N 7 9 4 5 1017.5 1015.7 0.0
30/08:00pm 18.3 15.0 0.4 30 8.1 N 7 9 4 5 1017.2 1015.4 0.0
30/07:30pm 19.7 16.0 0.2 27 8.9 N 9 11 5 6 1017.0 1015.2 0.0
30/07:00pm 20.5 16.9 0.4 26 9.3 N 9 9 5 5 1016.6 1014.8 0.0
30/06:30pm 21.3 17.6 -0.1 24 9.9 NNW 9 13 5 7 1016.4 1014.6 0.0
30/06:00pm 22.7 18.2 -0.1 22 10.6 N 13 19 7 10 1016.1 1014.3 0.0
30/05:30pm 23.9 19.1 0.3 21 11.2 N 15 20 8 11 1015.9 1014.0 0.0
30/05:00pm 24.4 19.6 0.0 20 11.5 NE 15 20 8 11 1015.7 1013.8 0.0
30/04:30pm 24.9 20.0 -0.3 19 11.9 NE 15 26 8 14 1015.3 1013.5 0.0
30/04:00pm 25.0 19.8 -0.2 19 11.9 NNE 17 22 9 12 1015.3 1013.5 0.0
30/03:30pm 24.8 20.0 0.3 20 11.7 ENE 15 22 8 12 1015.3 1013.5 0.0
30/03:00pm 24.8 21.3 1.0 21 11.5 NE 9 20 5 11 1015.2 1013.4 0.0
30/02:30pm 24.2 20.3 1.2 22 11.1 ENE 11 22 6 12 1015.4 1013.6 0.0
30/02:00pm 23.7 19.0 0.7 22 11.0 NNE 15 24 8 13 1015.8 1013.9 0.0
30/01:30pm 23.7 18.8 2.0 24 10.6 NE 17 26 9 14 1016.0 1014.1 0.0
30/01:00pm 23.0 18.5 1.9 25 10.2 NNE 15 26 8 14 1016.6 1014.8 0.0
30/12:30pm 22.0 17.0 1.6 26 9.8 NE 17 28 9 15 1017.1 1015.3 0.0
30/12:00pm 20.6 16.0 1.5 28 9.0 ENE 15 22 8 12 1017.7 1015.9 0.0
30/11:30am 20.6 16.3 3.3 32 8.5 ENE 15 22 8 12 1018.1 1016.3 0.0
30/11:00am 19.5 15.3 3.6 35 7.8 E 15 20 8 11 1018.5 1016.7 0.0
30/10:30am 18.2 13.9 3.3 37 7.2 E 15 22 8 12 1019.2 1017.4 0.0
30/10:00am 17.5 12.9 3.8 40 6.6 E 17 22 9 12 1019.5 1017.7 0.0
30/09:30am 16.2 11.2 3.6 43 6.0 E 19 24 10 13 1019.6 1017.8 0.0
30/09:00am 15.5 10.4 3.9 46 5.5 E 20 30 11 16 1019.5 1017.7 0.0
30/08:30am 14.6 9.4 3.7 48 5.1 E 20 30 11 16 1019.3 1017.5 0.0
30/08:00am 14.0 7.3 3.5 49 4.9 ESE 28 39 15 21 1018.9 1017.2 0.0
30/07:30am 13.6 8.6 3.7 51 4.6 ESE 19 26 10 14 1018.5 1016.7 0.0
30/07:00am 12.4 8.5 3.4 54 4.1 SE 13 15 7 8 1018.1 1016.3 0.0
30/06:30am 11.0 7.8 3.1 58 3.6 SE 9 11 5 6 1017.8 1016.0 0.0
30/06:00am 10.9 7.3 3.0 58 3.6 SSE 11 13 6 7 1017.5 1015.7 0.0
30/05:30am 11.7 7.4 3.0 55 4.0 SE 15 17 8 9 1017.0 1015.2 0.0
30/05:00am 11.8 8.2 3.1 55 4.0 SSE 11 13 6 7 1016.8 1015.0 0.0
30/04:30am 12.0 8.0 3.0 54 4.1 SSE 13 15 7 8 1016.5 1014.7 0.0
30/04:00am 11.7 8.9 3.0 55 3.9 SSE 7 9 4 5 1016.1 1014.3 0.0
30/03:30am 12.3 8.7 3.0 53 4.2 SSE 11 13 6 7 1015.9 1014.0 0.0
30/03:00am 12.7 9.2 3.4 53 4.3 SSE 11 15 6 8 1016.0 1014.1 0.0
30/02:30am 11.0 9.2 3.3 59 3.5 S 2 6 1 3 1016.0 1014.1 0.0
30/02:00am 12.1 9.0 3.6 56 3.9 S 9 11 5 6 1016.0 1014.1 0.0
30/01:30am 11.9 9.1 2.9 54 4.1 S 7 11 4 6 1016.0 1014.1 0.0
30/01:00am 12.9 10.4 3.6 53 4.3 S 6 7 3 4 1016.0 1014.1 0.0
30/12:30am 13.3 10.5 3.1 50 4.7 S 7 9 4 5 1016.2 1014.4 0.0
30/12:00am 13.2 11.3 3.0 50 4.7 S 2 6 1 3 1016.3 1014.5 0.0
 
Date/Time
WST
Temp
°C
App
Temp
°C
Dew
Point
°C
Rel
Hum
%
Delta-T
°C
Wind Press
QNH
hPa
Press
MSL
hPa
Rain since
9am
mm
Dir  Spd
km/h
Gust
km/h
Spd
kts
Gust
kts
29/11:30pm 14.1 12.3 3.3 48 5.0 S 2 6 1 3 1016.3 1014.5 0.0
29/11:00pm 15.5 12.0 3.3 44 5.7 S 11 17 6 9 1016.0 1014.1 0.0
29/10:30pm 15.0 11.8 3.2 45 5.5 SSW 9 13 5 7 1016.0 1014.1 0.0
29/10:00pm 15.8 12.6 3.3 43 5.9 SSW 9 11 5 6 1015.9 1014.0 0.0
29/09:30pm 16.5 13.3 2.9 40 6.4 S 9 11 5 6 1015.7 1013.8 0.0
29/09:00pm 16.8 13.2 2.8 39 6.6 SSE 11 13 6 7 1015.7 1013.8 0.0
29/08:30pm 17.4 13.7 2.6 37 7.0 S 11 13 6 7 1015.3 1013.5 0.0
29/08:00pm 17.7 14.0 2.1 35 7.3 S 11 13 6 7 1015.1 1013.3 0.0
29/07:30pm 18.6 14.3 1.2 31 8.1 S 13 17 7 9 1014.7 1012.9 0.0
29/07:00pm 19.4 15.1 0.9 29 8.6 SSE 13 15 7 8 1014.3 1012.4 0.0
29/06:30pm 19.8 15.9 1.3 29 8.7 SSE 11 13 6 7 1013.8 1012.0 0.0
29/06:00pm 20.7 16.8 1.1 27 9.2 SSE 11 13 6 7 1013.6 1011.8 0.0
29/05:30pm 21.8 18.8 0.9 25 9.9 SSE 6 7 3 4 1013.3 1011.5 0.0
29/05:00pm 22.4 20.0 -0.3 22 10.5 NW 2 7 1 4 1013.0 1011.1 0.0
29/04:30pm 22.4 19.0 -0.3 22 10.5 SSE 7 15 4 8 1012.7 1010.8 0.0
29/04:00pm 23.0 18.9 -0.5 21 10.9 SW 11 17 6 9 1012.5 1010.6 0.0
29/03:30pm 23.5 20.0 1.2 23 10.7 WSW 9 24 5 13 1012.3 1010.4 0.0
29/03:00pm 22.5 18.9 0.9 24 10.3 W 9 15 5 8 1012.4 1010.5 0.0
29/02:30pm 22.0 17.3 1.1 25 9.9 NW 15 26 8 14 1012.6 1010.7 0.0
29/02:00pm 22.2 18.8 1.8 26 9.8 SW 9 17 5 9 1012.6 1010.7 0.0

Other Formats:

Comma delimited format used in spreadsheet applications
http://www.bom.gov.au/fwo/IDW60801/IDW60801.99313.axf

JavaScript Object Notation format (JSON) in row-major order
http://www.bom.gov.au/fwo/IDW60801/IDW60801.99313.json